Time;durP1;ratioP1;P1;durP2;ratioP2;P2;SDS_P1;SDS_P2;PMS_P1;PMS_P2;Temp;Humidity;BMP_temperature;BMP_pressure;BME280_temperature;BME280_humidity;BME280_pressure;Samples;Min_cycle;Max_cycle;Signal;HPM_P1;HPM_P2
2022/11/05 00:10:18;;;;;;;17.67;12.40;;;;;;;;;;4999533;28;20413;-45
2022/11/05 00:18:13;;;;;;;29.17;14.33;;;;;;;;;;4997076;28;20412;-46
2022/11/05 00:20:39;;;;;;;20.27;12.30;;;;;;;;;;5003160;28;20432;-45
2022/11/05 00:26:03;;;;;;;26.97;13.17;;;;;;;;;;5000324;28;20425;-45
2022/11/05 00:28:30;;;;;;;21.17;13.37;;;;;;;;;;5000007;28;20982;-45
2022/11/05 00:31:00;;;;;;;20.20;13.27;;;;;;;;;;5003232;28;20433;-45
2022/11/05 00:33:26;;;;;;;18.97;13.00;;;;;;;;;;5003514;28;20944;-45
2022/11/05 00:35:52;;;;;;;23.73;13.60;;;;;;;;;;5000330;28;20444;-45
2022/11/05 00:38:18;;;;;;;25.60;13.17;;;;;;;;;;4999968;28;20516;-45
2022/11/05 00:40:44;;;;;;;22.13;14.03;;;;;;;;;;4994976;28;20479;-45
2022/11/05 00:45:55;;;;;;;24.07;13.97;;;;;;;;;;5000150;28;20774;-45
2022/11/05 00:51:06;;;;;;;24.50;14.57;;;;;;;;;;4992866;28;20428;-45
2022/11/05 00:53:32;;;;;;;25.03;15.50;;;;;;;;;;5000048;28;20460;-45
2022/11/05 00:55:59;;;;;;;27.60;15.10;;;;;;;;;;5003170;28;20413;-45
2022/11/05 00:58:26;;;;;;;19.83;13.50;;;;;;;;;;5003592;28;20414;-45
2022/11/05 01:00:56;;;;;;;25.07;15.87;;;;;;;;;;5008326;28;20434;-45
2022/11/05 01:03:29;;;;;;;24.77;14.83;;;;;;;;;;5010487;28;20409;-45
2022/11/05 01:05:57;;;;;;;30.67;14.90;;;;;;;;;;5000478;28;20431;-45
2022/11/05 01:08:26;;;;;;;23.93;15.63;;;;;;;;;;4999800;28;20461;-45
2022/11/05 01:10:53;;;;;;;28.30;17.00;;;;;;;;;;5005934;28;20440;-45
2022/11/05 01:13:20;;;;;;;27.60;16.07;;;;;;;;;;5005431;28;20412;-45
2022/11/05 01:15:46;;;;;;;22.70;14.77;;;;;;;;;;5005342;28;20449;-45
2022/11/05 01:18:13;;;;;;;35.60;16.03;;;;;;;;;;5004363;28;20467;-45
2022/11/05 01:20:39;;;;;;;26.90;16.27;;;;;;;;;;5004826;28;20442;-45
2022/11/05 01:23:05;;;;;;;24.20;16.47;;;;;;;;;;5000247;28;20820;-45
2022/11/05 01:25:31;;;;;;;29.70;16.07;;;;;;;;;;5006423;28;20417;-45
2022/11/05 01:27:57;;;;;;;23.00;16.20;;;;;;;;;;5003557;28;20472;-45
2022/11/05 01:30:23;;;;;;;25.67;17.03;;;;;;;;;;5002472;28;20507;-45
2022/11/05 01:32:49;;;;;;;23.70;16.47;;;;;;;;;;5004738;28;20417;-44
2022/11/05 01:35:16;;;;;;;23.53;17.20;;;;;;;;;;5002994;28;20417;-45
2022/11/05 01:37:43;;;;;;;22.33;14.13;;;;;;;;;;5003284;28;20429;-45
2022/11/05 01:40:14;;;;;;;30.17;16.87;;;;;;;;;;5002544;28;20508;-45
2022/11/05 01:42:40;;;;;;;28.70;17.70;;;;;;;;;;5008102;28;20504;-45
2022/11/05 01:45:06;;;;;;;29.10;16.80;;;;;;;;;;5003017;28;20424;-45
2022/11/05 01:47:38;;;;;;;25.90;15.30;;;;;;;;;;4999910;28;20472;-45
2022/11/05 01:50:22;;;;;;;29.13;15.63;;;;;;;;;;5001536;28;20443;-45
2022/11/05 01:52:51;;;;;;;23.10;15.47;;;;;;;;;;5005207;28;20471;-45
2022/11/05 01:55:19;;;;;;;27.37;15.70;;;;;;;;;;5004936;28;20546;-45
2022/11/05 01:57:45;;;;;;;22.87;15.40;;;;;;;;;;5004377;28;20444;-45
2022/11/05 02:00:12;;;;;;;27.83;16.53;;;;;;;;;;5003786;28;20498;-45
2022/11/05 02:02:38;;;;;;;30.77;16.30;;;;;;;;;;5003946;28;20482;-45
2022/11/05 02:05:05;;;;;;;24.70;15.40;;;;;;;;;;4998463;28;20413;-45
2022/11/05 02:07:31;;;;;;;27.20;15.63;;;;;;;;;;5004109;28;20462;-45
2022/11/05 02:10:02;;;;;;;30.43;17.10;;;;;;;;;;5002205;28;20491;-44
2022/11/05 02:12:29;;;;;;;29.80;14.33;;;;;;;;;;5001493;28;20574;-45
2022/11/05 02:14:55;;;;;;;27.30;15.97;;;;;;;;;;5004293;28;20408;-45
2022/11/05 02:17:30;;;;;;;24.00;15.13;;;;;;;;;;5002289;28;21001;-44
2022/11/05 02:20:09;;;;;;;27.73;14.90;;;;;;;;;;5001274;28;20419;-45
2022/11/05 02:22:38;;;;;;;32.93;15.33;;;;;;;;;;5002605;28;20552;-45
2022/11/05 02:25:10;;;;;;;28.00;15.27;;;;;;;;;;5006256;28;20988;-45
2022/11/05 02:27:59;;;;;;;20.63;15.03;;;;;;;;;;5005652;28;20466;-44
2022/11/05 02:30:31;;;;;;;24.70;16.83;;;;;;;;;;5003220;28;20408;-45
2022/11/05 02:33:06;;;;;;;26.20;16.63;;;;;;;;;;4993030;28;20423;-45
2022/11/05 02:35:42;;;;;;;31.10;16.20;;;;;;;;;;5005127;28;20421;-45
2022/11/05 02:38:16;;;;;;;23.70;15.30;;;;;;;;;;5004190;28;20533;-45
2022/11/05 02:41:00;;;;;;;26.03;15.80;;;;;;;;;;5000534;28;20436;-45
2022/11/05 02:43:26;;;;;;;26.80;16.03;;;;;;;;;;4999718;28;20587;-45
2022/11/05 02:46:01;;;;;;;22.67;15.77;;;;;;;;;;5002139;28;20484;-45
2022/11/05 02:48:43;;;;;;;25.73;16.70;;;;;;;;;;5001517;28;20459;-44
2022/11/05 02:51:23;;;;;;;25.67;16.60;;;;;;;;;;4995188;28;20519;-45
2022/11/05 02:54:07;;;;;;;26.37;17.40;;;;;;;;;;5002996;28;20401;-45
2022/11/05 02:56:35;;;;;;;26.50;17.00;;;;;;;;;;4998945;28;20397;-45
2022/11/05 02:59:01;;;;;;;24.07;16.30;;;;;;;;;;5002788;28;20409;-44
2022/11/05 03:01:27;;;;;;;27.67;17.73;;;;;;;;;;5001267;28;20800;-45
2022/11/05 03:03:59;;;;;;;22.40;15.40;;;;;;;;;;5001526;28;20441;-45
2022/11/05 03:06:38;;;;;;;26.10;16.30;;;;;;;;;;5006011;28;20499;-45
2022/11/05 03:09:16;;;;;;;27.30;16.77;;;;;;;;;;4994452;28;20818;-45
2022/11/05 03:12:05;;;;;;;26.50;16.47;;;;;;;;;;4998351;28;20487;-44
2022/11/05 03:14:37;;;;;;;27.77;16.87;;;;;;;;;;4996608;28;20418;-44
2022/11/05 03:17:09;;;;;;;26.73;19.10;;;;;;;;;;5004076;28;20501;-45
2022/11/05 03:19:39;;;;;;;27.60;16.27;;;;;;;;;;5001818;28;20414;-45
2022/11/05 03:22:09;;;;;;;24.60;16.63;;;;;;;;;;5003306;28;20443;-45
2022/11/05 03:24:39;;;;;;;31.77;18.50;;;;;;;;;;5001702;28;20409;-45
2022/11/05 03:27:08;;;;;;;27.23;16.20;;;;;;;;;;5001724;28;20417;-44
2022/11/05 03:29:36;;;;;;;24.57;17.37;;;;;;;;;;5001506;28;20830;-45
2022/11/05 03:32:04;;;;;;;29.60;17.40;;;;;;;;;;5000480;28;21225;-45
2022/11/05 03:34:41;;;;;;;28.33;17.33;;;;;;;;;;5006359;28;20434;-44
2022/11/05 03:37:07;;;;;;;23.07;17.07;;;;;;;;;;4995200;28;20411;-45
2022/11/05 03:39:44;;;;;;;27.00;16.63;;;;;;;;;;4999616;28;20516;-44
2022/11/05 03:42:12;;;;;;;27.30;16.50;;;;;;;;;;5001367;28;20456;-45
2022/11/05 03:44:40;;;;;;;26.60;17.40;;;;;;;;;;5001619;28;20484;-45
2022/11/05 03:47:10;;;;;;;25.00;17.80;;;;;;;;;;5003895;28;20405;-45
2022/11/05 03:49:39;;;;;;;24.07;16.90;;;;;;;;;;5000898;28;20496;-44
2022/11/05 03:52:15;;;;;;;24.47;16.03;;;;;;;;;;5002858;28;20444;-44
2022/11/05 03:54:41;;;;;;;25.67;16.63;;;;;;;;;;5002979;28;20929;-45
2022/11/05 03:57:17;;;;;;;26.33;15.80;;;;;;;;;;4998077;28;20581;-44
2022/11/05 03:59:44;;;;;;;28.27;16.53;;;;;;;;;;5001643;28;20431;-44
2022/11/05 04:02:11;;;;;;;28.20;16.20;;;;;;;;;;5003161;28;20857;-45
2022/11/05 04:04:37;;;;;;;23.53;16.03;;;;;;;;;;4999708;28;20413;-45
2022/11/05 04:15:17;;;;;;;20.87;14.30;;;;;;;;;;5003184;28;20912;-45
2022/11/05 04:17:43;;;;;;;31.30;16.87;;;;;;;;;;5001650;28;20411;-45
2022/11/05 04:25:45;;;;;;;24.27;15.63;;;;;;;;;;5000973;28;20422;-45
2022/11/05 04:28:12;;;;;;;24.00;16.20;;;;;;;;;;4999734;28;20882;-44
2022/11/05 04:30:38;;;;;;;27.67;17.77;;;;;;;;;;5008606;28;20427;-45
2022/11/05 04:33:05;;;;;;;22.30;16.80;;;;;;;;;;5004785;28;20427;-45
2022/11/05 04:35:36;;;;;;;23.53;16.57;;;;;;;;;;5002137;28;20765;-45
2022/11/05 04:38:03;;;;;;;37.43;18.27;;;;;;;;;;5003784;28;20416;-45
2022/11/05 04:40:29;;;;;;;26.97;19.03;;;;;;;;;;5003549;28;20432;-45
2022/11/05 04:42:55;;;;;;;33.43;18.63;;;;;;;;;;5007331;28;20427;-44
2022/11/05 04:45:22;;;;;;;30.00;17.93;;;;;;;;;;5008651;28;20417;-44
2022/11/05 04:47:48;;;;;;;27.93;16.80;;;;;;;;;;5007272;28;20464;-44
2022/11/05 04:50:15;;;;;;;32.37;19.90;;;;;;;;;;5004082;28;20934;-45
2022/11/05 04:52:41;;;;;;;34.87;20.10;;;;;;;;;;5000044;28;20408;-44
2022/11/05 04:55:07;;;;;;;34.63;21.40;;;;;;;;;;5007143;28;20474;-44
2022/11/05 04:57:33;;;;;;;37.40;23.77;;;;;;;;;;5004652;28;20451;-45
2022/11/05 04:59:59;;;;;;;36.07;21.10;;;;;;;;;;5006517;28;20485;-45
2022/11/05 05:02:25;;;;;;;37.13;20.97;;;;;;;;;;5003862;28;20949;-44
2022/11/05 05:04:51;;;;;;;35.30;20.73;;;;;;;;;;5006388;28;20792;-44
2022/11/05 05:07:17;;;;;;;38.70;21.47;;;;;;;;;;5002838;28;20485;-44
2022/11/05 05:09:43;;;;;;;37.60;22.30;;;;;;;;;;5004896;28;20417;-44
2022/11/05 05:12:09;;;;;;;33.40;22.90;;;;;;;;;;5006083;28;20431;-45
2022/11/05 05:14:35;;;;;;;43.27;21.67;;;;;;;;;;5003030;28;20424;-45
2022/11/05 05:17:01;;;;;;;40.43;22.77;;;;;;;;;;5005001;28;20465;-44
2022/11/05 05:19:27;;;;;;;45.07;23.50;;;;;;;;;;5006403;28;20414;-45
2022/11/05 05:21:53;;;;;;;42.67;23.27;;;;;;;;;;5004249;28;20432;-45
2022/11/05 05:24:20;;;;;;;44.63;25.43;;;;;;;;;;5003433;28;20420;-44
2022/11/05 05:26:47;;;;;;;42.10;23.63;;;;;;;;;;5011314;28;20433;-44
2022/11/05 05:29:13;;;;;;;46.70;23.43;;;;;;;;;;5004838;28;21026;-45
2022/11/05 05:31:40;;;;;;;54.75;26.45;;;;;;;;;;5000777;28;20444;-44
2022/11/05 05:34:06;;;;;;;44.43;23.43;;;;;;;;;;5002673;28;20197;-45
2022/11/05 05:36:32;;;;;;;44.33;23.92;;;;;;;;;;5003115;28;20436;-44
2022/11/05 05:38:58;;;;;;;45.27;24.80;;;;;;;;;;5006215;28;20188;-44
2022/11/05 05:41:24;;;;;;;42.80;22.27;;;;;;;;;;5004430;28;20436;-44
2022/11/05 05:43:50;;;;;;;42.27;24.23;;;;;;;;;;5007193;28;20415;-45
2022/11/05 05:46:17;;;;;;;33.73;21.13;;;;;;;;;;5009015;28;20494;-44
2022/11/05 05:48:43;;;;;;;39.70;20.90;;;;;;;;;;4998839;28;20495;-44
2022/11/05 05:51:10;;;;;;;36.15;22.42;;;;;;;;;;5000638;28;20487;-44
2022/11/05 05:53:36;;;;;;;36.07;22.43;;;;;;;;;;5003523;28;20601;-44
2022/11/05 05:56:03;;;;;;;38.67;20.97;;;;;;;;;;5006088;28;20399;-44
2022/11/05 05:58:33;;;;;;;36.83;20.77;;;;;;;;;;4998995;28;20494;-44
2022/11/05 06:01:00;;;;;;;34.60;20.50;;;;;;;;;;4999753;28;20432;-45
2022/11/05 06:03:26;;;;;;;37.50;20.50;;;;;;;;;;5003259;28;20697;-44
2022/11/05 06:05:52;;;;;;;35.08;20.08;;;;;;;;;;5002763;28;20503;-44
2022/11/05 06:08:18;;;;;;;34.93;20.50;;;;;;;;;;5006762;28;20238;-44
2022/11/05 06:10:50;;;;;;;35.23;21.00;;;;;;;;;;4999906;28;20447;-44
2022/11/05 06:13:16;;;;;;;35.78;20.60;;;;;;;;;;5001384;28;20463;-43
2022/11/05 06:15:42;;;;;;;36.03;21.30;;;;;;;;;;5003804;28;20177;-43
2022/11/05 06:18:08;;;;;;;46.00;20.57;;;;;;;;;;5002249;28;20417;-43
2022/11/05 06:20:33;;;;;;;35.07;20.90;;;;;;;;;;5002059;28;20961;-44
2022/11/05 06:22:59;;;;;;;30.07;19.03;;;;;;;;;;5007625;28;20451;-44
2022/11/05 06:25:26;;;;;;;31.83;21.63;;;;;;;;;;5009488;28;20459;-44
2022/11/05 06:27:53;;;;;;;30.47;19.60;;;;;;;;;;4999908;28;20901;-44
2022/11/05 06:30:20;;;;;;;33.30;20.70;;;;;;;;;;4999682;28;20420;-44
2022/11/05 06:32:46;;;;;;;37.93;20.10;;;;;;;;;;5004091;28;20603;-44
2022/11/05 06:35:12;;;;;;;35.70;18.80;;;;;;;;;;5005350;28;20446;-44
2022/11/05 06:37:38;;;;;;;31.70;19.70;;;;;;;;;;5001582;28;20499;-44
2022/11/05 06:40:04;;;;;;;28.53;19.37;;;;;;;;;;4999001;28;20409;-45
2022/11/05 06:42:31;;;;;;;32.75;20.50;;;;;;;;;;5004904;28;20432;-44
2022/11/05 06:44:57;;;;;;;32.47;20.52;;;;;;;;;;4997262;28;20842;-44
2022/11/05 06:47:23;;;;;;;30.87;19.73;;;;;;;;;;5003084;28;20188;-44
2022/11/05 06:49:48;;;;;;;32.70;20.83;;;;;;;;;;5001042;28;20541;-44
2022/11/05 06:52:15;;;;;;;35.40;21.73;;;;;;;;;;5001968;28;21094;-44
2022/11/05 06:54:42;;;;;;;38.10;20.93;;;;;;;;;;5001201;28;20495;-44
2022/11/05 06:57:08;;;;;;;37.53;21.92;;;;;;;;;;5006396;28;20417;-44
2022/11/05 06:59:35;;;;;;;36.03;20.35;;;;;;;;;;5001904;28;20318;-44
2022/11/05 07:02:01;;;;;;;35.08;22.33;;;;;;;;;;5001127;28;20219;-44
2022/11/05 07:04:27;;;;;;;37.10;22.55;;;;;;;;;;5009162;28;20588;-44
2022/11/05 07:06:53;;;;;;;33.90;21.70;;;;;;;;;;5001246;28;20323;-44
2022/11/05 07:09:19;;;;;;;38.13;23.57;;;;;;;;;;5001056;28;20418;-44
2022/11/05 07:11:45;;;;;;;41.20;23.40;;;;;;;;;;5002204;28;20432;-44
2022/11/05 07:14:11;;;;;;;37.70;23.77;;;;;;;;;;5001249;28;20420;-45
2022/11/05 07:16:37;;;;;;;42.03;24.77;;;;;;;;;;5001661;28;20416;-44
2022/11/05 07:19:03;;;;;;;41.63;24.27;;;;;;;;;;5006149;28;20467;-44
2022/11/05 07:21:29;;;;;;;41.13;24.07;;;;;;;;;;5000195;28;20439;-44
2022/11/05 07:23:55;;;;;;;43.30;25.90;;;;;;;;;;4999431;28;20407;-42
2022/11/05 07:26:21;;;;;;;40.80;24.57;;;;;;;;;;4999207;28;20423;-43
2022/11/05 07:28:47;;;;;;;42.73;24.37;;;;;;;;;;5003034;28;20448;-43
2022/11/05 07:31:12;;;;;;;44.77;26.30;;;;;;;;;;5004045;28;20988;-46
2022/11/05 07:33:38;;;;;;;51.37;26.17;;;;;;;;;;5002303;28;20594;-43
2022/11/05 07:36:05;;;;;;;43.03;24.50;;;;;;;;;;5004618;28;20468;-43
2022/11/05 07:38:30;;;;;;;48.07;26.57;;;;;;;;;;5003832;28;20491;-44
2022/11/05 07:40:59;;;;;;;45.10;25.70;;;;;;;;;;4997493;28;20471;-43
2022/11/05 07:43:25;;;;;;;41.80;23.77;;;;;;;;;;4996666;28;20412;-43
2022/11/05 07:45:51;;;;;;;43.33;25.40;;;;;;;;;;5003510;28;20570;-43
2022/11/05 07:48:16;;;;;;;43.03;24.43;;;;;;;;;;5002482;28;20499;-44
2022/11/05 07:50:42;;;;;;;39.87;24.53;;;;;;;;;;5001498;28;20437;-43
2022/11/05 07:53:13;;;;;;;41.90;24.80;;;;;;;;;;5002159;28;20455;-44
2022/11/05 07:55:40;;;;;;;41.00;24.90;;;;;;;;;;5001909;28;20518;-45
2022/11/05 07:58:06;;;;;;;38.60;23.07;;;;;;;;;;4997016;28;20471;-43
2022/11/05 08:00:33;;;;;;;44.60;26.60;;;;;;;;;;5003144;28;20443;-44
2022/11/05 08:03:11;;;;;;;44.73;25.80;;;;;;;;;;5001178;28;20409;-43
2022/11/05 08:05:38;;;;;;;43.83;25.80;;;;;;;;;;4999065;28;20420;-43
2022/11/05 08:08:05;;;;;;;37.83;24.00;;;;;;;;;;5000711;28;20412;-44
2022/11/05 08:10:32;;;;;;;35.93;23.30;;;;;;;;;;4999985;28;20439;-43
2022/11/05 08:12:58;;;;;;;43.53;24.77;;;;;;;;;;4992503;28;20412;-43
2022/11/05 08:15:24;;;;;;;34.53;23.10;;;;;;;;;;5000426;28;20907;-43
2022/11/05 08:17:56;;;;;;;48.53;23.87;;;;;;;;;;5005102;28;21051;-45
2022/11/05 08:20:22;;;;;;;32.07;21.77;;;;;;;;;;5002326;28;20424;-44
2022/11/05 08:22:48;;;;;;;38.17;22.87;;;;;;;;;;4996785;28;20499;-44
2022/11/05 08:25:14;;;;;;;35.93;21.90;;;;;;;;;;4997976;28;20428;-43
2022/11/05 08:27:40;;;;;;;36.00;21.33;;;;;;;;;;5001715;28;20432;-43
2022/11/05 08:30:07;;;;;;;34.57;22.33;;;;;;;;;;5003417;28;20472;-43
2022/11/05 08:32:33;;;;;;;31.63;22.23;;;;;;;;;;4997597;28;20418;-44
2022/11/05 08:34:59;;;;;;;29.70;21.30;;;;;;;;;;5002945;28;20419;-45
2022/11/05 08:37:25;;;;;;;34.43;21.57;;;;;;;;;;5000641;28;20413;-43
2022/11/05 08:39:51;;;;;;;31.37;22.40;;;;;;;;;;4995076;28;20984;-43
2022/11/05 08:42:17;;;;;;;32.17;21.80;;;;;;;;;;5003142;28;20455;-43
2022/11/05 08:44:43;;;;;;;28.47;18.87;;;;;;;;;;5000415;28;20416;-43
2022/11/05 08:47:09;;;;;;;38.73;21.60;;;;;;;;;;5001460;28;20820;-43
2022/11/05 08:49:35;;;;;;;34.17;21.73;;;;;;;;;;5000358;28;20420;-43
2022/11/05 08:52:01;;;;;;;43.50;20.80;;;;;;;;;;5000501;28;20429;-44
2022/11/05 08:54:27;;;;;;;34.80;20.40;;;;;;;;;;4999890;28;20415;-45
2022/11/05 08:56:53;;;;;;;25.93;19.57;;;;;;;;;;5000217;28;20959;-44
2022/11/05 08:59:19;;;;;;;26.27;18.83;;;;;;;;;;5003357;28;21040;-43
2022/11/05 09:01:45;;;;;;;22.60;17.40;;;;;;;;;;4998229;28;20474;-43
2022/11/05 09:04:11;;;;;;;25.50;18.03;;;;;;;;;;4999680;28;20451;-43
2022/11/05 09:06:37;;;;;;;18.07;14.27;;;;;;;;;;5000063;28;20432;-43
2022/11/05 09:09:03;;;;;;;13.43;12.03;;;;;;;;;;4999794;28;20455;-44
2022/11/05 09:11:29;;;;;;;15.10;12.27;;;;;;;;;;4999374;28;20965;-43
2022/11/05 09:13:55;;;;;;;15.30;10.97;;;;;;;;;;5004915;28;20473;-44
2022/11/05 09:16:22;;;;;;;14.60;9.63;;;;;;;;;;5004599;28;20923;-43
2022/11/05 09:18:49;;;;;;;17.27;11.23;;;;;;;;;;5000387;28;20466;-44
2022/11/05 09:21:16;;;;;;;13.63;10.07;;;;;;;;;;5000717;28;20463;-44
2022/11/05 09:23:42;;;;;;;13.93;10.30;;;;;;;;;;5004518;28;20397;-44
2022/11/05 09:26:09;;;;;;;13.67;9.93;;;;;;;;;;5006750;28;20432;-43
2022/11/05 09:28:35;;;;;;;11.50;9.00;;;;;;;;;;5001067;28;20942;-44
2022/11/05 09:31:04;;;;;;;18.33;8.90;;;;;;;;;;5005780;28;20439;-44
2022/11/05 09:33:31;;;;;;;15.63;8.43;;;;;;;;;;5004834;28;20430;-47
2022/11/05 09:35:58;;;;;;;11.23;8.47;;;;;;;;;;4999093;28;20903;-44
2022/11/05 09:38:25;;;;;;;11.40;8.33;;;;;;;;;;5006265;28;20477;-44
2022/11/05 09:40:57;;;;;;;10.80;7.07;;;;;;;;;;4988568;28;20488;-44
2022/11/05 09:43:26;;;;;;;10.53;7.23;;;;;;;;;;5002804;28;20474;-45
2022/11/05 09:45:54;;;;;;;15.87;7.77;;;;;;;;;;5002234;28;21193;-44
2022/11/05 09:48:23;;;;;;;9.60;7.23;;;;;;;;;;5000773;28;20484;-43
2022/11/05 09:50:50;;;;;;;10.00;7.07;;;;;;;;;;5003378;28;20477;-43
2022/11/05 09:53:17;;;;;;;11.00;7.90;;;;;;;;;;5002623;28;20430;-44
2022/11/05 09:55:45;;;;;;;8.00;7.13;;;;;;;;;;5007866;28;20479;-46
2022/11/05 09:58:29;;;;;;;10.43;7.47;;;;;;;;;;5004455;28;20469;-48
2022/11/05 10:00:56;;;;;;;9.50;6.90;;;;;;;;;;5001073;28;20430;-47
2022/11/05 10:03:23;;;;;;;11.57;6.90;;;;;;;;;;5001230;28;20412;-45
2022/11/05 10:05:50;;;;;;;12.23;7.17;;;;;;;;;;5004634;28;20450;-44
2022/11/05 10:08:20;;;;;;;12.37;7.13;;;;;;;;;;5004555;28;21071;-45
2022/11/05 10:10:46;;;;;;;11.40;6.50;;;;;;;;;;5000172;28;20427;-46
2022/11/05 10:13:16;;;;;;;8.63;6.50;;;;;;;;;;5000200;28;20415;-44
2022/11/05 10:15:53;;;;;;;11.93;6.73;;;;;;;;;;5003543;28;20415;-45
2022/11/05 10:18:25;;;;;;;9.80;6.60;;;;;;;;;;4999598;28;20474;-45
2022/11/05 10:20:51;;;;;;;8.53;5.80;;;;;;;;;;5001620;28;20432;-44
2022/11/05 10:23:18;;;;;;;7.93;6.20;;;;;;;;;;5005517;28;20770;-45
2022/11/05 10:25:53;;;;;;;11.83;6.00;;;;;;;;;;5000915;28;20419;-45
2022/11/05 10:28:20;;;;;;;7.50;6.23;;;;;;;;;;4999644;28;20426;-44
2022/11/05 10:30:48;;;;;;;9.83;5.30;;;;;;;;;;5002220;28;20435;-45
2022/11/05 10:33:16;;;;;;;5.97;4.80;;;;;;;;;;5001647;28;20775;-46
2022/11/05 10:35:46;;;;;;;8.10;6.47;;;;;;;;;;5003400;28;20442;-44
2022/11/05 10:38:13;;;;;;;9.53;5.87;;;;;;;;;;5004557;28;20468;-44
2022/11/05 10:40:54;;;;;;;8.63;5.17;;;;;;;;;;5005179;28;20951;-45
2022/11/05 10:43:34;;;;;;;6.07;5.20;;;;;;;;;;5002428;28;20409;-44
2022/11/05 10:46:03;;;;;;;5.30;4.80;;;;;;;;;;4991193;28;20407;-44
2022/11/05 10:48:37;;;;;;;9.33;6.13;;;;;;;;;;5004853;28;20920;-45
2022/11/05 10:51:03;;;;;;;6.27;4.60;;;;;;;;;;4996461;28;20534;-47
2022/11/05 10:53:32;;;;;;;9.37;5.80;;;;;;;;;;5001060;28;20424;-45
2022/11/05 10:55:58;;;;;;;6.63;4.90;;;;;;;;;;4993820;28;20404;-44
2022/11/05 10:58:31;;;;;;;8.63;5.47;;;;;;;;;;5000167;28;21034;-44
2022/11/05 11:00:57;;;;;;;5.80;5.17;;;;;;;;;;5000805;28;20443;-44
2022/11/05 11:03:32;;;;;;;5.80;4.90;;;;;;;;;;5001724;28;20410;-45
2022/11/05 11:06:06;;;;;;;7.17;4.63;;;;;;;;;;4996116;28;20409;-44
2022/11/05 11:08:35;;;;;;;8.90;5.53;;;;;;;;;;5005320;28;20560;-44
2022/11/05 11:11:10;;;;;;;5.70;5.10;;;;;;;;;;4995704;28;20855;-45
2022/11/05 11:13:50;;;;;;;4.80;4.40;;;;;;;;;;4999432;28;20418;-46
2022/11/05 11:16:20;;;;;;;7.60;4.57;;;;;;;;;;5011534;28;20786;-45
2022/11/05 11:18:46;;;;;;;7.27;5.17;;;;;;;;;;4999955;28;20470;-46
2022/11/05 11:21:13;;;;;;;5.40;4.90;;;;;;;;;;5002183;28;20522;-46
2022/11/05 11:23:40;;;;;;;7.63;4.53;;;;;;;;;;5001553;28;20406;-45
2022/11/05 11:26:07;;;;;;;7.37;5.50;;;;;;;;;;5000191;28;20414;-45
2022/11/05 11:28:54;;;;;;;8.17;5.20;;;;;;;;;;4994073;28;20560;-45
2022/11/05 11:31:21;;;;;;;7.97;7.03;;;;;;;;;;5004587;28;20486;-45
2022/11/05 11:33:50;;;;;;;20.13;8.70;;;;;;;;;;5006446;28;20427;-45
2022/11/05 11:36:18;;;;;;;13.60;7.73;;;;;;;;;;5003160;28;20422;-45
2022/11/05 11:38:44;;;;;;;8.00;6.37;;;;;;;;;;4997781;28;20434;-45
2022/11/05 11:41:10;;;;;;;10.33;7.07;;;;;;;;;;4999271;28;20803;-45
2022/11/05 11:43:37;;;;;;;5.80;4.97;;;;;;;;;;5001368;28;20388;-45
2022/11/05 11:46:04;;;;;;;8.27;5.70;;;;;;;;;;5004032;28;20387;-45
2022/11/05 11:48:33;;;;;;;11.00;5.50;;;;;;;;;;5001572;28;20397;-45
2022/11/05 11:51:14;;;;;;;5.10;4.60;;;;;;;;;;5003843;28;20936;-46
2022/11/05 11:53:40;;;;;;;10.63;5.20;;;;;;;;;;5003130;28;20401;-46
2022/11/05 11:56:06;;;;;;;8.13;4.17;;;;;;;;;;4998065;28;20390;-45
2022/11/05 11:58:38;;;;;;;5.93;4.27;;;;;;;;;;5003333;28;20829;-46
2022/11/05 12:01:24;;;;;;;6.83;3.83;;;;;;;;;;5002308;28;20473;-45
2022/11/05 12:03:52;;;;;;;8.13;5.30;;;;;;;;;;4995853;28;20424;-46
2022/11/05 12:06:21;;;;;;;6.10;4.70;;;;;;;;;;4999945;28;20888;-45
2022/11/05 12:08:59;;;;;;;7.10;4.60;;;;;;;;;;5001162;28;20410;-45
2022/11/05 12:11:28;;;;;;;7.27;4.50;;;;;;;;;;4999757;28;20449;-45
2022/11/05 12:13:58;;;;;;;4.87;4.37;;;;;;;;;;5003512;28;20397;-46
2022/11/05 12:16:28;;;;;;;6.30;4.43;;;;;;;;;;5002143;28;20478;-45
2022/11/05 12:18:54;;;;;;;6.77;5.40;;;;;;;;;;5006016;28;20510;-46
2022/11/05 12:21:20;;;;;;;9.17;4.60;;;;;;;;;;5001992;28;20941;-45
2022/11/05 12:23:55;;;;;;;9.30;5.33;;;;;;;;;;4996379;28;20576;-45
2022/11/05 12:26:21;;;;;;;8.27;5.03;;;;;;;;;;5003544;28;20430;-46
2022/11/05 12:28:54;;;;;;;5.50;5.00;;;;;;;;;;5001142;28;20828;-45
2022/11/05 12:31:26;;;;;;;6.80;4.97;;;;;;;;;;5000360;28;20431;-45
2022/11/05 12:33:58;;;;;;;4.83;4.43;;;;;;;;;;5002741;28;20431;-45
2022/11/05 12:36:32;;;;;;;8.33;6.30;;;;;;;;;;4999832;28;20432;-44
2022/11/05 12:39:00;;;;;;;6.33;5.43;;;;;;;;;;4999058;28;20434;-45
2022/11/05 12:41:31;;;;;;;7.37;5.87;;;;;;;;;;4999993;28;20441;-45
2022/11/05 12:44:04;;;;;;;11.17;5.80;;;;;;;;;;4990227;28;20512;-45
2022/11/05 12:46:48;;;;;;;7.97;5.57;;;;;;;;;;5003326;28;20916;-45
2022/11/05 12:49:14;;;;;;;10.53;6.07;;;;;;;;;;4995186;28;20433;-45
2022/11/05 12:51:43;;;;;;;7.13;5.50;;;;;;;;;;4999075;28;20948;-45
2022/11/05 12:54:21;;;;;;;5.97;5.30;;;;;;;;;;5007450;28;20479;-45
2022/11/05 12:56:49;;;;;;;7.67;5.30;;;;;;;;;;5006807;28;20442;-45
2022/11/05 12:59:21;;;;;;;6.90;5.33;;;;;;;;;;5008604;28;20509;-45
2022/11/05 13:02:00;;;;;;;10.13;7.30;;;;;;;;;;5005586;28;21060;-45
2022/11/05 13:04:35;;;;;;;10.37;6.30;;;;;;;;;;4999779;28;20825;-45
2022/11/05 13:07:04;;;;;;;6.63;4.60;;;;;;;;;;5002079;28;20416;-45
2022/11/05 13:09:43;;;;;;;6.90;6.20;;;;;;;;;;5003901;28;20408;-45
2022/11/05 13:12:14;;;;;;;8.50;5.10;;;;;;;;;;5003556;28;20435;-44
2022/11/05 13:14:43;;;;;;;9.20;5.20;;;;;;;;;;5005708;28;20472;-44
2022/11/05 13:17:15;;;;;;;7.13;5.57;;;;;;;;;;5003024;28;20808;-44
2022/11/05 13:19:50;;;;;;;8.30;6.23;;;;;;;;;;4999705;28;20462;-46
2022/11/05 13:22:32;;;;;;;8.33;5.30;;;;;;;;;;5021816;28;20462;-45
2022/11/05 13:25:16;;;;;;;10.57;6.07;;;;;;;;;;4997701;28;20465;-45
2022/11/05 13:27:46;;;;;;;7.20;5.57;;;;;;;;;;4997395;28;20416;-44
2022/11/05 13:30:15;;;;;;;5.63;5.10;;;;;;;;;;4997653;28;20466;-44
2022/11/05 13:32:42;;;;;;;8.50;5.83;;;;;;;;;;5004256;28;20784;-44
2022/11/05 13:35:24;;;;;;;8.33;5.93;;;;;;;;;;5003194;28;20422;-45
2022/11/05 13:40:38;;;;;;;6.90;5.70;;;;;;;;;;5006238;28;20441;-45
2022/11/05 13:43:23;;;;;;;12.63;5.27;;;;;;;;;;5005907;28;20406;-45
2022/11/05 13:46:07;;;;;;;6.20;4.70;;;;;;;;;;5007070;28;20436;-44
2022/11/05 13:48:48;;;;;;;11.40;5.30;;;;;;;;;;5003956;28;20514;-44
2022/11/05 13:51:23;;;;;;;5.27;4.77;;;;;;;;;;5002573;28;20454;-45
2022/11/05 13:53:57;;;;;;;7.77;4.93;;;;;;;;;;5008818;28;20421;-45
2022/11/05 13:56:35;;;;;;;4.77;4.27;;;;;;;;;;5006313;28;20413;-45
2022/11/05 13:59:04;;;;;;;5.20;4.60;;;;;;;;;;4993863;28;20495;-45
2022/11/05 14:01:36;;;;;;;10.67;5.03;;;;;;;;;;5005366;28;20538;-45
2022/11/05 14:04:03;;;;;;;6.77;4.50;;;;;;;;;;5005676;28;20411;-45
2022/11/05 14:06:30;;;;;;;7.43;4.13;;;;;;;;;;4997738;28;20415;-45
2022/11/05 14:08:59;;;;;;;7.10;4.03;;;;;;;;;;4984806;28;20511;-45
2022/11/05 14:11:26;;;;;;;6.00;3.70;;;;;;;;;;4993791;28;21016;-45
2022/11/05 14:13:56;;;;;;;3.60;3.10;;;;;;;;;;5005411;28;20477;-45
2022/11/05 14:16:23;;;;;;;5.00;3.30;;;;;;;;;;5002686;28;20409;-46
2022/11/05 14:18:55;;;;;;;6.23;3.00;;;;;;;;;;5004526;28;20469;-48
2022/11/05 14:21:27;;;;;;;3.87;3.07;;;;;;;;;;5009029;28;20958;-48
2022/11/05 14:23:54;;;;;;;3.63;3.33;;;;;;;;;;5003715;28;20446;-48
2022/11/05 14:26:21;;;;;;;6.80;3.50;;;;;;;;;;5003394;28;20859;-46
2022/11/05 14:28:47;;;;;;;5.30;3.70;;;;;;;;;;5004522;28;20763;-47
2022/11/05 14:31:21;;;;;;;10.63;3.77;;;;;;;;;;5003509;28;20469;-49
2022/11/05 14:34:23;;;;;;;7.73;3.77;;;;;;;;;;5006818;28;20438;-46
2022/11/05 14:37:02;;;;;;;4.63;2.90;;;;;;;;;;4984700;28;20427;-46
2022/11/05 14:39:29;;;;;;;7.00;4.07;;;;;;;;;;5002063;28;20494;-47
2022/11/05 14:42:03;;;;;;;8.33;4.13;;;;;;;;;;5007351;28;20521;-47
2022/11/05 14:44:30;;;;;;;9.30;4.10;;;;;;;;;;5005138;28;20918;-48
2022/11/05 14:47:07;;;;;;;8.37;4.37;;;;;;;;;;4996303;28;20500;-47
2022/11/05 14:49:36;;;;;;;7.47;4.60;;;;;;;;;;5010021;28;20897;-46
2022/11/05 14:52:09;;;;;;;5.97;3.67;;;;;;;;;;5005353;28;20444;-45
2022/11/05 14:54:48;;;;;;;3.77;3.47;;;;;;;;;;5003113;28;20795;-47
2022/11/05 14:57:15;;;;;;;6.00;4.50;;;;;;;;;;5002703;28;20416;-48
2022/11/05 14:59:51;;;;;;;5.67;3.80;;;;;;;;;;5004861;28;20514;-49
2022/11/05 15:02:19;;;;;;;7.33;4.00;;;;;;;;;;5005589;28;20435;-44
2022/11/05 15:04:46;;;;;;;5.43;3.50;;;;;;;;;;5002101;28;20425;-45
2022/11/05 15:07:21;;;;;;;8.93;4.07;;;;;;;;;;5004154;28;20420;-44
2022/11/05 15:09:53;;;;;;;7.97;4.10;;;;;;;;;;5004286;28;20919;-46
2022/11/05 15:12:40;;;;;;;11.47;4.50;;;;;;;;;;4999676;28;20454;-46
2022/11/05 15:15:09;;;;;;;9.43;4.27;;;;;;;;;;4991025;28;20419;-47
2022/11/05 15:17:59;;;;;;;9.60;4.63;;;;;;;;;;5003813;28;20455;-45